createdAt,value
2022-12-03T00:27:20.133Z,1016.8
2022-12-03T00:57:20.143Z,1016.86
2022-12-03T01:27:20.137Z,1016.83
2022-12-03T01:57:20.138Z,1016.79
2022-12-03T02:27:20.153Z,1016.88
2022-12-03T02:57:20.145Z,1016.9
2022-12-03T03:27:20.159Z,1016.93
2022-12-03T03:57:20.171Z,1016.93
2022-12-03T04:27:20.193Z,1016.84
2022-12-03T04:57:20.176Z,1016.87
2022-12-03T05:27:23.671Z,1016.64
2022-12-03T05:57:20.204Z,1016.7
2022-12-03T06:27:20.203Z,1016.61
2022-12-03T06:57:20.207Z,1016.94
2022-12-03T07:27:20.219Z,1017.05
2022-12-03T07:57:20.210Z,1016.99
2022-12-03T08:27:20.213Z,1016.84
2022-12-03T08:57:20.226Z,1016.68
2022-12-03T09:27:20.243Z,1016.79
2022-12-03T09:57:20.217Z,1016.71
2022-12-03T10:27:20.243Z,1016.45
2022-12-03T10:57:20.247Z,1016.01
2022-12-03T11:27:20.260Z,1015.94
2022-12-03T11:57:20.267Z,1015.56
2022-12-03T12:27:20.296Z,1015.4
2022-12-03T12:57:20.277Z,1015.31
2022-12-03T13:27:20.278Z,1014.94
2022-12-03T13:57:20.285Z,1014.89
2022-12-03T14:27:20.292Z,1014.95
2022-12-03T14:57:20.295Z,1014.88
2022-12-03T15:27:20.299Z,1014.89
2022-12-03T15:57:20.305Z,1014.93
2022-12-03T16:27:25.292Z,1014.98
2022-12-03T16:57:20.317Z,1014.95
2022-12-03T17:27:20.314Z,1014.77
2022-12-03T17:57:20.323Z,1014.52
2022-12-03T18:27:20.320Z,1014.49
2022-12-03T18:57:20.324Z,1014.44
2022-12-03T19:27:20.351Z,1014.34
2022-12-03T19:57:23.551Z,1014.05
2022-12-03T20:27:23.003Z,1013.94
2022-12-03T20:57:20.359Z,1013.95
2022-12-03T21:27:22.006Z,1013.77
2022-12-03T21:57:20.376Z,1013.51
2022-12-03T22:27:20.369Z,1013.53
2022-12-03T22:57:20.374Z,1012.98
2022-12-03T23:27:20.390Z,1012.96
2022-12-03T23:57:20.391Z,1012.86
